Charter Quote
Worldwide +1-877-727-2538 Call
Select Language Lang
SAFETY RELIABILITY EXPERIENCE

Private Jet Charter Services - Yibin (ZUYB)

Paramount Business Jets offers private jet charter flights and luxury airliner charters to and from Yibin.

AIRPORT INFORMATION
ICAOZUYB
LOCATIONYibin, China
FACILITY TYPEAIRPORT

At Paramount Business Jets you can hire chartered private jets to and from Yibin with as little as 4 hours of notice. All flights booked via Paramount Business Jets are operated by certified direct air carriers that meet and exceed the FAA part 135 and 121 protocol or a foreign equivalent safety authority. Furthermore, Paramount Business Jets subscribes to ARGUS for their third party safety checks of operators, aircraft, and crews prior each and every flight to and from Yibin and worldwide.

  • Quote a trip using Yibin or call us 24/7 - 365 days a year at +1-877-727-2538.
Questions? Call +1-877-727-2538

METAR Weather Data at Yibin, ZUYB

STATIONZUYB
OBSERVEDThu Jun 19, 13:00 UTC
NOWTue Jul 16, 04:00 UTC
AGE44463:00 hr ago
WINDW at 4 mph
VISIBILITY11 miles
CONDITIONSrain showers
CLOUDSovercast
TEMP75°F (24°C)
DEWPT75°F (24°C)
HUMIDITY100%
BAROMETER1001 hPa (29.56 in Hg)
METARZUYB 191300Z 28002MPS 7000 SHRA SCT033CB BKN033 OVC050 24/24 Q1001 NOSIG

Call us on +1-877-727-2538 (24 Hours) to Hire a Private Jet or Get a Quick Quote.

Find Airports Near any Location

Processing
...